sensor_id;sensor_type;location;lat;lon;timestamp;P1;durP1;ratioP1;P2;durP2;ratioP2
31010;SDS011;26395;53.412;19.598;2023-08-07T00:12:26;7.10;;;4.00;;
31010;SDS011;26395;53.412;19.598;2023-08-07T00:27:30;8.90;;;7.60;;
31010;SDS011;26395;53.412;19.598;2023-08-07T00:42:33;5.20;;;2.50;;
31010;SDS011;26395;53.412;19.598;2023-08-07T00:57:37;6.20;;;3.80;;
31010;SDS011;26395;53.412;19.598;2023-08-07T01:12:52;5.50;;;2.00;;
31010;SDS011;26395;53.412;19.598;2023-08-07T01:28:04;1.90;;;0.90;;
31010;SDS011;26395;53.412;19.598;2023-08-07T01:43:15;2.20;;;1.70;;
31010;SDS011;26395;53.412;19.598;2023-08-07T01:58:21;2.90;;;2.20;;
31010;SDS011;26395;53.412;19.598;2023-08-07T02:13:25;3.20;;;2.20;;
31010;SDS011;26395;53.412;19.598;2023-08-07T02:28:29;3.70;;;3.20;;
31010;SDS011;26395;53.412;19.598;2023-08-07T02:43:32;2.80;;;2.50;;
31010;SDS011;26395;53.412;19.598;2023-08-07T03:07:29;1.90;;;1.70;;
31010;SDS011;26395;53.412;19.598;2023-08-07T03:23:04;2.50;;;1.90;;
31010;SDS011;26395;53.412;19.598;2023-08-07T03:38:32;1.90;;;1.50;;
31010;SDS011;26395;53.412;19.598;2023-08-07T03:54:07;2.70;;;2.00;;
31010;SDS011;26395;53.412;19.598;2023-08-07T04:09:51;3.10;;;2.10;;
31010;SDS011;26395;53.412;19.598;2023-08-07T04:25:30;1.10;;;1.00;;
31010;SDS011;26395;53.412;19.598;2023-08-07T04:40:57;1.30;;;1.20;;
31010;SDS011;26395;53.412;19.598;2023-08-07T04:56:40;1.30;;;0.80;;
31010;SDS011;26395;53.412;19.598;2023-08-07T05:12:16;1.00;;;0.80;;
31010;SDS011;26395;53.412;19.598;2023-08-07T05:28:02;1.00;;;0.80;;
31010;SDS011;26395;53.412;19.598;2023-08-07T05:43:48;1.40;;;1.20;;
31010;SDS011;26395;53.412;19.598;2023-08-07T05:59:23;0.90;;;0.90;;
31010;SDS011;26395;53.412;19.598;2023-08-07T06:15:17;1.30;;;0.60;;
31010;SDS011;26395;53.412;19.598;2023-08-07T06:31:08;1.20;;;1.00;;
31010;SDS011;26395;53.412;19.598;2023-08-07T06:46:41;1.60;;;1.10;;
31010;SDS011;26395;53.412;19.598;2023-08-07T07:02:17;1.10;;;0.80;;
31010;SDS011;26395;53.412;19.598;2023-08-07T07:18:10;0.50;;;0.50;;
31010;SDS011;26395;53.412;19.598;2023-08-07T07:34:01;1.50;;;0.50;;
31010;SDS011;26395;53.412;19.598;2023-08-07T07:50:07;1.00;;;0.60;;
31010;SDS011;26395;53.412;19.598;2023-08-07T08:05:44;0.70;;;0.70;;
31010;SDS011;26395;53.412;19.598;2023-08-07T08:21:17;1.20;;;1.10;;
31010;SDS011;26395;53.412;19.598;2023-08-07T08:36:23;3.00;;;1.10;;
31010;SDS011;26395;53.412;19.598;2023-08-07T08:51:26;2.60;;;1.50;;
31010;SDS011;26395;53.412;19.598;2023-08-07T09:06:31;3.30;;;2.50;;
31010;SDS011;26395;53.412;19.598;2023-08-07T09:21:35;2.50;;;2.10;;
31010;SDS011;26395;53.412;19.598;2023-08-07T09:36:39;9.70;;;4.80;;
31010;SDS011;26395;53.412;19.598;2023-08-07T09:51:47;6.20;;;4.70;;
31010;SDS011;26395;53.412;19.598;2023-08-07T10:06:53;3.70;;;3.10;;
31010;SDS011;26395;53.412;19.598;2023-08-07T10:21:57;3.00;;;1.80;;
31010;SDS011;26395;53.412;19.598;2023-08-07T10:37:01;5.80;;;2.50;;
31010;SDS011;26395;53.412;19.598;2023-08-07T10:52:09;3.50;;;2.10;;
31010;SDS011;26395;53.412;19.598;2023-08-07T11:07:22;2.90;;;1.60;;
31010;SDS011;26395;53.412;19.598;2023-08-07T11:22:28;5.80;;;4.30;;
31010;SDS011;26395;53.412;19.598;2023-08-07T11:37:31;5.00;;;2.10;;
31010;SDS011;26395;53.412;19.598;2023-08-07T11:52:35;12.40;;;7.00;;
31010;SDS011;26395;53.412;19.598;2023-08-07T12:07:39;7.80;;;3.30;;
31010;SDS011;26395;53.412;19.598;2023-08-07T12:22:43;3.50;;;1.30;;
31010;SDS011;26395;53.412;19.598;2023-08-07T12:37:47;3.90;;;1.40;;
31010;SDS011;26395;53.412;19.598;2023-08-07T12:52:51;3.20;;;1.40;;
31010;SDS011;26395;53.412;19.598;2023-08-07T13:07:54;2.80;;;1.70;;
31010;SDS011;26395;53.412;19.598;2023-08-07T13:23:01;4.20;;;1.60;;
31010;SDS011;26395;53.412;19.598;2023-08-07T13:38:07;8.10;;;2.30;;
31010;SDS011;26395;53.412;19.598;2023-08-07T13:53:58;4.10;;;2.10;;
31010;SDS011;26395;53.412;19.598;2023-08-07T14:09:35;3.10;;;1.90;;
31010;SDS011;26395;53.412;19.598;2023-08-07T14:24:44;3.10;;;1.80;;
31010;SDS011;26395;53.412;19.598;2023-08-07T14:39:48;3.30;;;1.90;;
31010;SDS011;26395;53.412;19.598;2023-08-07T14:54:51;3.30;;;1.90;;
31010;SDS011;26395;53.412;19.598;2023-08-07T15:09:56;3.80;;;2.20;;
31010;SDS011;26395;53.412;19.598;2023-08-07T15:24:59;7.00;;;1.70;;
31010;SDS011;26395;53.412;19.598;2023-08-07T15:40:03;5.20;;;2.20;;
31010;SDS011;26395;53.412;19.598;2023-08-07T15:55:07;5.80;;;2.90;;
31010;SDS011;26395;53.412;19.598;2023-08-07T16:10:11;4.10;;;2.50;;
31010;SDS011;26395;53.412;19.598;2023-08-07T16:25:14;5.10;;;2.60;;
31010;SDS011;26395;53.412;19.598;2023-08-07T16:40:23;6.60;;;2.70;;
31010;SDS011;26395;53.412;19.598;2023-08-07T16:55:39;5.40;;;2.60;;
31010;SDS011;26395;53.412;19.598;2023-08-07T17:10:45;5.50;;;3.20;;
31010;SDS011;26395;53.412;19.598;2023-08-07T17:26:31;5.90;;;3.10;;
31010;SDS011;26395;53.412;19.598;2023-08-07T17:41:36;6.20;;;3.20;;
31010;SDS011;26395;53.412;19.598;2023-08-07T17:56:48;9.20;;;5.70;;
31010;SDS011;26395;53.412;19.598;2023-08-07T18:11:53;21.70;;;10.70;;
31010;SDS011;26395;53.412;19.598;2023-08-07T18:27:07;7.90;;;4.40;;
31010;SDS011;26395;53.412;19.598;2023-08-07T18:42:22;6.40;;;3.80;;
31010;SDS011;26395;53.412;19.598;2023-08-07T18:57:43;10.20;;;4.30;;
31010;SDS011;26395;53.412;19.598;2023-08-07T19:12:50;6.20;;;3.10;;
31010;SDS011;26395;53.412;19.598;2023-08-07T19:28:11;10.80;;;3.60;;
31010;SDS011;26395;53.412;19.598;2023-08-07T19:43:23;18.00;;;12.10;;
31010;SDS011;26395;53.412;19.598;2023-08-07T19:58:28;27.70;;;12.40;;
31010;SDS011;26395;53.412;19.598;2023-08-07T20:13:32;29.30;;;14.90;;
31010;SDS011;26395;53.412;19.598;2023-08-07T20:28:35;51.20;;;25.90;;
31010;SDS011;26395;53.412;19.598;2023-08-07T20:43:39;27.10;;;13.30;;
31010;SDS011;26395;53.412;19.598;2023-08-07T20:58:44;22.20;;;10.40;;
31010;SDS011;26395;53.412;19.598;2023-08-07T21:13:48;9.70;;;3.80;;
31010;SDS011;26395;53.412;19.598;2023-08-07T21:29:14;12.20;;;4.70;;
31010;SDS011;26395;53.412;19.598;2023-08-07T21:44:18;7.30;;;3.30;;
31010;SDS011;26395;53.412;19.598;2023-08-07T21:59:22;9.30;;;3.70;;
31010;SDS011;26395;53.412;19.598;2023-08-07T22:14:25;15.80;;;8.00;;
31010;SDS011;26395;53.412;19.598;2023-08-07T22:29:29;17.90;;;7.60;;
31010;SDS011;26395;53.412;19.598;2023-08-07T22:44:32;17.70;;;7.10;;
31010;SDS011;26395;53.412;19.598;2023-08-07T22:59:35;13.80;;;3.80;;
31010;SDS011;26395;53.412;19.598;2023-08-07T23:14:39;8.80;;;3.40;;
31010;SDS011;26395;53.412;19.598;2023-08-07T23:29:43;8.70;;;2.50;;
31010;SDS011;26395;53.412;19.598;2023-08-07T23:44:47;10.00;;;2.90;;
31010;SDS011;26395;53.412;19.598;2023-08-07T23:59:50;11.10;;;3.20;;
